< Typhoon 195208 1952 Season Typhoon 195210 >
Typhoon 195209 (KAREN)
General InformationTrack Information on Google Maps || Disaster Info.ResourceGoogle EarthGE AnimationAtom FeedGeoJSON
Detalied Best Track (Time Zone = UTC)
Year Month Day Hour Lat. Long. Pressure (hPa) Wind (kt) Class Image Chart
1952 8 12 00 13.0 131.5 1002 0 2 -- Chart
1952 8 12 06 13.7 130.7 1002 0 2 -- Chart
1952 8 12 12 14.5 130.0 1000 0 2 -- Chart
1952 8 12 18 16.3 129.7 998 0 2 -- Chart
1952 8 13 00 17.6 129.6 995 0 9 -- Chart
1952 8 13 06 17.9 129.2 988 0 9 -- Chart
1952 8 13 12 18.6 128.8 985 0 9 -- Chart
1952 8 13 18 19.8 129.0 983 0 9 -- Chart
1952 8 14 00 21.2 130.0 981 0 9 -- Chart
1952 8 14 06 22.2 129.1 977 0 9 -- Chart
1952 8 14 12 23.0 128.5 974 0 9 -- Chart
1952 8 14 18 24.0 128.1 971 0 9 -- Chart
1952 8 15 00 25.0 127.6 969 0 9 -- Chart
1952 8 15 06 25.6 127.1 964 0 9 -- Chart
1952 8 15 12 26.0 126.7 960 0 9 -- Chart
1952 8 15 18 26.4 126.0 958 0 9 -- Chart
1952 8 16 00 26.8 125.4 956 0 9 -- Chart
1952 8 16 06 28.0 125.3 955 0 9 -- Chart
1952 8 16 12 28.8 125.5 955 0 9 -- Chart
1952 8 16 18 29.4 125.3 955 0 9 -- Chart
1952 8 17 00 30.1 125.1 957 0 9 -- Chart
1952 8 17 06 30.8 125.3 959 0 9 -- Chart
1952 8 17 12 31.7 125.4 963 0 9 -- Chart
1952 8 17 18 33.0 125.3 969 0 9 -- Chart
1952 8 18 00 34.6 125.2 975 0 9 -- Chart
1952 8 18 06 36.6 127.0 980 0 9 -- Chart
1952 8 18 12 38.3 129.0 982 0 9 -- Chart
1952 8 18 18 39.5 132.0 984 0 9 -- Chart
1952 8 19 00 40.5 133.5 986 0 9 -- Chart
1952 8 19 06 42.5 136.5 988 0 9 -- Chart
1952 8 19 12 42.5 139.5 990 0 9 -- Chart
1952 8 19 18 42.8 142.5 993 0 9 -- Chart
1952 8 20 00 43.9 147.5 994 0 6 -- Chart
1952 8 20 06 44.2 150.9 996 0 6 -- Chart
1952 8 20 12 44.8 152.8 998 0 6 -- Chart
1952 8 20 18 45.6 155.1 998 0 6 -- Chart
1952 8 21 00 46.5 157.4 1000 0 6 -- Chart
1952 8 21 06 47.4 159.2 1000 0 6 -- Chart
1952 8 21 12 48.3 160.0 1000 0 6 -- Chart
1952 8 21 18 50.5 161.0 1000 0 6 -- Chart
1952 8 22 00 52.3 163.0 1002 0 6 -- Chart
1952 8 22 06 53.6 166.8 1000 0 6 -- Chart
1952 8 22 12 54.2 171.2 1000 0 6 -- Chart
1952 8 22 18 54.0 173.2 1000 0 6 -- Chart
1952 8 23 00 54.1 174.1 1002 0 6 -- Chart
1952 8 23 06 54.3 174.7 1002 0 6 -- Chart
1952 8 23 12 54.8 175.0 1006 0 6 -- Chart
1952 8 23 18 55.2 175.1 1006 0 6 -- Chart
1952 8 24 00 55.5 174.5 1006 0 6 -- Chart
1952 8 24 06 55.1 173.0 1004 0 6 -- Chart
1952 8 24 12 54.6 171.9 1004 0 6 -- Chart
1952 8 24 18 53.9 171.6 1004 0 6 -- Chart
1952 8 25 00 53.1 171.5 1004 0 6 -- Chart
1952 8 25 06 52.1 173.3 1004 0 6 -- Chart
1952 8 25 12 53.2 177.1 1002 0 6 -- Chart
1952 8 25 18 53.2 178.5 1000 0 6 -- Chart
1952 8 26 00 53.7 182.3 1000 0 6 -- Chart
1952 8 26 06 54.8 181.0 1000 0 6 -- Chart
1952 8 26 12 54.9 180.2 998 0 6 -- Chart
1952 8 26 18 55.0 179.5 998 0 6 -- Chart
1952 8 27 00 55.1 178.9 998 0 6 -- Chart
1952 8 27 06 55.7 178.8 996 0 6 -- Chart
1952 8 27 12 55.9 179.2 996 0 6 -- Chart
1952 8 27 18 56.1 179.6 998 0 6 -- Chart
1952 8 28 00 56.6 180.5 1000 0 6 -- Chart
Japan Meteorological Agency Best Track Data | Correction Date : 1991-07-16
< Typhoon 195208 1952 Season Typhoon 195210 >

Help